LFST/SXB METAR and TAF weather

Enter ICAO airport designator
Station Type Date Time Source
LFST METAR 2018/12/15 22:30 UTC NOAA

LFST 152230Z AUTO 14004KT 110V170 9000 NSC M01/M05 Q1017 TEMPO 1200 SN OVC003


Station Type Date Time Source
LFST Decoded METAR 2018/12/15 22:30 UTC NOAA

Strasbourg, France (LFST) 48-33N 007-38E 154M
Dec 15, 2018 - 05:30 PM EST / 2018.12.15 2230 UTC
Wind: from the SE (140 degrees) at 5 MPH (4 KT) (direction variable):0
Visibility: 5 mile(s):0
Temperature: 30 F (-1 C)
Windchill: 24 F (-4 C):1
Dew Point: 23 F (-5 C)
Relative Humidity: 74%
Pressure (altimeter): 30.03 in. Hg (1017 hPa)
ob: LFST 152230Z AUTO 14004KT 110V170 9000 NSC M01/M05 Q1017 TEMPO 1200 SN OVC003
cycle: 22

Station Type Date Time Source
LFST TAF 2018/12/15 18:21 UTC NOAA

TAF LFST 151700Z 1518/1618 VRB03KT 8000 NSC
BECMG 1522/1524 18008KT 3000 -SN SCT005 BKN030
TEMPO 1600/1606 1200 SN OVC003
BECMG 1606/1608 8000 NSW
BECMG 1612/1614 OVC005
BECMG 1616/1618 VRB03KT 1200 BCFG OVC002


Example: see airport list